sensor_id;sensor_type;location;lat;lon;timestamp;P1;durP1;ratioP1;P2;durP2;ratioP2
16998;SDS011;10211;49.476;11.010;2023-09-30T00:00:35;6.30;;;2.97;;
16998;SDS011;10211;49.476;11.010;2023-09-30T00:03:02;5.50;;;2.90;;
16998;SDS011;10211;49.476;11.010;2023-09-30T00:05:29;9.47;;;2.93;;
16998;SDS011;10211;49.476;11.010;2023-09-30T00:07:56;6.43;;;3.17;;
16998;SDS011;10211;49.476;11.010;2023-09-30T00:10:23;5.93;;;2.53;;
16998;SDS011;10211;49.476;11.010;2023-09-30T00:12:50;7.07;;;2.70;;
16998;SDS011;10211;49.476;11.010;2023-09-30T00:15:18;7.53;;;2.90;;
16998;SDS011;10211;49.476;11.010;2023-09-30T00:17:45;5.87;;;2.63;;
16998;SDS011;10211;49.476;11.010;2023-09-30T00:20:11;5.80;;;2.70;;
16998;SDS011;10211;49.476;11.010;2023-09-30T00:22:39;6.13;;;2.80;;
16998;SDS011;10211;49.476;11.010;2023-09-30T00:25:06;7.07;;;2.87;;
16998;SDS011;10211;49.476;11.010;2023-09-30T00:27:33;7.57;;;2.67;;
16998;SDS011;10211;49.476;11.010;2023-09-30T00:30:00;4.80;;;2.57;;
16998;SDS011;10211;49.476;11.010;2023-09-30T00:32:29;6.03;;;2.57;;
16998;SDS011;10211;49.476;11.010;2023-09-30T00:34:56;5.20;;;2.77;;
16998;SDS011;10211;49.476;11.010;2023-09-30T00:37:23;5.77;;;2.80;;
16998;SDS011;10211;49.476;11.010;2023-09-30T00:39:50;5.73;;;2.90;;
16998;SDS011;10211;49.476;11.010;2023-09-30T00:42:17;5.00;;;2.20;;
16998;SDS011;10211;49.476;11.010;2023-09-30T00:44:45;6.37;;;2.50;;
16998;SDS011;10211;49.476;11.010;2023-09-30T00:47:12;5.23;;;2.13;;
16998;SDS011;10211;49.476;11.010;2023-09-30T00:49:41;5.30;;;2.07;;
16998;SDS011;10211;49.476;11.010;2023-09-30T00:52:08;5.57;;;2.07;;
16998;SDS011;10211;49.476;11.010;2023-09-30T00:54:35;4.57;;;2.40;;
16998;SDS011;10211;49.476;11.010;2023-09-30T00:57:03;6.53;;;2.47;;
16998;SDS011;10211;49.476;11.010;2023-09-30T00:59:31;7.30;;;2.70;;
16998;SDS011;10211;49.476;11.010;2023-09-30T01:01:58;5.57;;;2.33;;
16998;SDS011;10211;49.476;11.010;2023-09-30T01:04:29;4.87;;;2.53;;
16998;SDS011;10211;49.476;11.010;2023-09-30T01:06:58;7.97;;;3.53;;
16998;SDS011;10211;49.476;11.010;2023-09-30T01:09:25;4.77;;;2.30;;
16998;SDS011;10211;49.476;11.010;2023-09-30T01:11:52;4.70;;;2.20;;
16998;SDS011;10211;49.476;11.010;2023-09-30T01:14:26;3.23;;;2.27;;
16998;SDS011;10211;49.476;11.010;2023-09-30T01:16:53;8.07;;;2.83;;
16998;SDS011;10211;49.476;11.010;2023-09-30T01:19:20;4.70;;;2.53;;
16998;SDS011;10211;49.476;11.010;2023-09-30T01:21:50;3.53;;;2.67;;
16998;SDS011;10211;49.476;11.010;2023-09-30T01:24:19;4.77;;;2.60;;
16998;SDS011;10211;49.476;11.010;2023-09-30T01:26:46;3.43;;;2.13;;
16998;SDS011;10211;49.476;11.010;2023-09-30T01:29:13;3.90;;;2.40;;
16998;SDS011;10211;49.476;11.010;2023-09-30T01:31:40;3.93;;;1.90;;
16998;SDS011;10211;49.476;11.010;2023-09-30T01:34:07;3.67;;;2.10;;
16998;SDS011;10211;49.476;11.010;2023-09-30T01:36:36;5.33;;;2.60;;
16998;SDS011;10211;49.476;11.010;2023-09-30T01:39:04;4.00;;;2.40;;
16998;SDS011;10211;49.476;11.010;2023-09-30T01:41:33;6.90;;;1.70;;
16998;SDS011;10211;49.476;11.010;2023-09-30T01:44:01;5.67;;;2.77;;
16998;SDS011;10211;49.476;11.010;2023-09-30T01:46:28;4.53;;;2.43;;
16998;SDS011;10211;49.476;11.010;2023-09-30T01:48:54;5.20;;;2.37;;
16998;SDS011;10211;49.476;11.010;2023-09-30T01:51:21;5.60;;;2.57;;
16998;SDS011;10211;49.476;11.010;2023-09-30T01:53:48;4.23;;;2.23;;
16998;SDS011;10211;49.476;11.010;2023-09-30T01:56:16;3.80;;;2.57;;
16998;SDS011;10211;49.476;11.010;2023-09-30T01:58:43;5.53;;;2.63;;
16998;SDS011;10211;49.476;11.010;2023-09-30T02:01:10;4.43;;;2.23;;
16998;SDS011;10211;49.476;11.010;2023-09-30T02:03:37;4.57;;;2.30;;
16998;SDS011;10211;49.476;11.010;2023-09-30T02:06:04;4.57;;;2.00;;
16998;SDS011;10211;49.476;11.010;2023-09-30T02:08:31;9.03;;;3.13;;
16998;SDS011;10211;49.476;11.010;2023-09-30T02:10:57;5.73;;;2.70;;
16998;SDS011;10211;49.476;11.010;2023-09-30T02:13:26;5.87;;;2.40;;
16998;SDS011;10211;49.476;11.010;2023-09-30T02:15:53;4.57;;;2.47;;
16998;SDS011;10211;49.476;11.010;2023-09-30T02:18:20;5.20;;;2.47;;
16998;SDS011;10211;49.476;11.010;2023-09-30T02:20:48;4.60;;;2.20;;
16998;SDS011;10211;49.476;11.010;2023-09-30T02:23:15;4.37;;;2.50;;
16998;SDS011;10211;49.476;11.010;2023-09-30T02:25:42;6.50;;;2.47;;
16998;SDS011;10211;49.476;11.010;2023-09-30T02:28:09;5.47;;;2.37;;
16998;SDS011;10211;49.476;11.010;2023-09-30T02:30:37;5.27;;;2.23;;
16998;SDS011;10211;49.476;11.010;2023-09-30T02:33:04;3.50;;;2.00;;
16998;SDS011;10211;49.476;11.010;2023-09-30T02:35:32;4.17;;;1.90;;
16998;SDS011;10211;49.476;11.010;2023-09-30T02:37:59;4.00;;;2.10;;
16998;SDS011;10211;49.476;11.010;2023-09-30T02:40:27;3.93;;;2.10;;
16998;SDS011;10211;49.476;11.010;2023-09-30T02:42:54;4.00;;;2.13;;
16998;SDS011;10211;49.476;11.010;2023-09-30T02:45:26;3.00;;;2.00;;
16998;SDS011;10211;49.476;11.010;2023-09-30T02:47:54;2.83;;;2.27;;
16998;SDS011;10211;49.476;11.010;2023-09-30T02:50:26;6.50;;;2.00;;
16998;SDS011;10211;49.476;11.010;2023-09-30T02:52:53;2.20;;;1.47;;
16998;SDS011;10211;49.476;11.010;2023-09-30T02:55:19;4.60;;;2.23;;
16998;SDS011;10211;49.476;11.010;2023-09-30T02:57:46;3.43;;;1.70;;
16998;SDS011;10211;49.476;11.010;2023-09-30T03:00:13;3.67;;;1.60;;
16998;SDS011;10211;49.476;11.010;2023-09-30T03:02:45;5.93;;;1.83;;
16998;SDS011;10211;49.476;11.010;2023-09-30T03:05:14;4.27;;;1.60;;
16998;SDS011;10211;49.476;11.010;2023-09-30T03:07:41;2.00;;;1.73;;
16998;SDS011;10211;49.476;11.010;2023-09-30T03:10:08;1.93;;;1.70;;
16998;SDS011;10211;49.476;11.010;2023-09-30T03:12:37;1.80;;;1.60;;
16998;SDS011;10211;49.476;11.010;2023-09-30T03:15:05;4.27;;;1.90;;
16998;SDS011;10211;49.476;11.010;2023-09-30T03:17:32;4.83;;;1.97;;
16998;SDS011;10211;49.476;11.010;2023-09-30T03:19:59;4.10;;;1.67;;
16998;SDS011;10211;49.476;11.010;2023-09-30T03:22:28;5.80;;;2.07;;
16998;SDS011;10211;49.476;11.010;2023-09-30T03:24:55;7.00;;;2.20;;
16998;SDS011;10211;49.476;11.010;2023-09-30T03:27:22;5.47;;;1.73;;
16998;SDS011;10211;49.476;11.010;2023-09-30T03:29:49;4.40;;;2.20;;
16998;SDS011;10211;49.476;11.010;2023-09-30T03:32:15;3.07;;;1.77;;
16998;SDS011;10211;49.476;11.010;2023-09-30T03:34:43;5.00;;;1.73;;
16998;SDS011;10211;49.476;11.010;2023-09-30T03:37:11;3.63;;;2.00;;
16998;SDS011;10211;49.476;11.010;2023-09-30T03:39:40;3.80;;;1.97;;
16998;SDS011;10211;49.476;11.010;2023-09-30T03:42:08;3.93;;;1.80;;
16998;SDS011;10211;49.476;11.010;2023-09-30T03:44:36;2.20;;;1.23;;
16998;SDS011;10211;49.476;11.010;2023-09-30T03:47:03;4.53;;;1.70;;
16998;SDS011;10211;49.476;11.010;2023-09-30T03:49:32;3.90;;;1.60;;
16998;SDS011;10211;49.476;11.010;2023-09-30T03:51:59;2.67;;;1.37;;
16998;SDS011;10211;49.476;11.010;2023-09-30T03:54:26;2.43;;;1.80;;
16998;SDS011;10211;49.476;11.010;2023-09-30T03:56:54;4.83;;;2.23;;
16998;SDS011;10211;49.476;11.010;2023-09-30T03:59:21;2.50;;;1.63;;
16998;SDS011;10211;49.476;11.010;2023-09-30T04:01:48;3.37;;;1.60;;
16998;SDS011;10211;49.476;11.010;2023-09-30T04:04:16;5.17;;;2.10;;
16998;SDS011;10211;49.476;11.010;2023-09-30T04:06:43;3.07;;;1.67;;
16998;SDS011;10211;49.476;11.010;2023-09-30T04:09:11;6.63;;;1.93;;
16998;SDS011;10211;49.476;11.010;2023-09-30T04:11:39;4.13;;;2.73;;
16998;SDS011;10211;49.476;11.010;2023-09-30T04:14:09;7.97;;;2.00;;
16998;SDS011;10211;49.476;11.010;2023-09-30T04:16:36;5.57;;;2.23;;
16998;SDS011;10211;49.476;11.010;2023-09-30T04:19:03;4.67;;;2.00;;
16998;SDS011;10211;49.476;11.010;2023-09-30T04:21:32;5.13;;;2.10;;
16998;SDS011;10211;49.476;11.010;2023-09-30T04:23:59;3.87;;;1.87;;
16998;SDS011;10211;49.476;11.010;2023-09-30T04:26:26;5.77;;;2.40;;
16998;SDS011;10211;49.476;11.010;2023-09-30T04:28:54;5.87;;;2.00;;
16998;SDS011;10211;49.476;11.010;2023-09-30T04:31:22;3.07;;;2.10;;
16998;SDS011;10211;49.476;11.010;2023-09-30T04:33:49;3.87;;;2.07;;
16998;SDS011;10211;49.476;11.010;2023-09-30T04:36:17;3.73;;;2.03;;
16998;SDS011;10211;49.476;11.010;2023-09-30T04:38:44;1.80;;;1.53;;
16998;SDS011;10211;49.476;11.010;2023-09-30T04:41:12;3.70;;;1.50;;
16998;SDS011;10211;49.476;11.010;2023-09-30T04:43:40;3.43;;;2.10;;
16998;SDS011;10211;49.476;11.010;2023-09-30T04:46:08;5.13;;;2.20;;
16998;SDS011;10211;49.476;11.010;2023-09-30T04:48:38;2.87;;;2.07;;
16998;SDS011;10211;49.476;11.010;2023-09-30T04:51:06;3.60;;;1.60;;
16998;SDS011;10211;49.476;11.010;2023-09-30T04:53:33;4.13;;;2.13;;
16998;SDS011;10211;49.476;11.010;2023-09-30T04:56:00;4.40;;;1.43;;
16998;SDS011;10211;49.476;11.010;2023-09-30T04:58:28;3.57;;;1.60;;
16998;SDS011;10211;49.476;11.010;2023-09-30T05:00:56;4.13;;;2.00;;
16998;SDS011;10211;49.476;11.010;2023-09-30T05:03:23;6.43;;;2.17;;
16998;SDS011;10211;49.476;11.010;2023-09-30T05:05:51;2.70;;;1.63;;
16998;SDS011;10211;49.476;11.010;2023-09-30T05:08:20;4.80;;;2.23;;
16998;SDS011;10211;49.476;11.010;2023-09-30T05:10:48;5.83;;;1.80;;
16998;SDS011;10211;49.476;11.010;2023-09-30T05:13:15;4.57;;;1.83;;
16998;SDS011;10211;49.476;11.010;2023-09-30T05:15:42;3.80;;;1.87;;
16998;SDS011;10211;49.476;11.010;2023-09-30T05:18:09;2.13;;;1.60;;
16998;SDS011;10211;49.476;11.010;2023-09-30T05:20:36;5.83;;;2.20;;
16998;SDS011;10211;49.476;11.010;2023-09-30T05:23:05;3.90;;;2.20;;
16998;SDS011;10211;49.476;11.010;2023-09-30T05:25:33;3.90;;;1.93;;
16998;SDS011;10211;49.476;11.010;2023-09-30T05:28:00;3.57;;;2.33;;
16998;SDS011;10211;49.476;11.010;2023-09-30T05:30:26;4.20;;;2.27;;
16998;SDS011;10211;49.476;11.010;2023-09-30T05:32:53;3.87;;;1.73;;
16998;SDS011;10211;49.476;11.010;2023-09-30T05:35:20;3.47;;;1.87;;
16998;SDS011;10211;49.476;11.010;2023-09-30T05:37:47;4.87;;;2.27;;
16998;SDS011;10211;49.476;11.010;2023-09-30T05:40:18;4.30;;;2.40;;
16998;SDS011;10211;49.476;11.010;2023-09-30T05:42:51;5.40;;;2.07;;
16998;SDS011;10211;49.476;11.010;2023-09-30T05:45:18;2.47;;;1.70;;
16998;SDS011;10211;49.476;11.010;2023-09-30T05:47:45;4.30;;;2.13;;
16998;SDS011;10211;49.476;11.010;2023-09-30T05:50:12;4.23;;;2.53;;
16998;SDS011;10211;49.476;11.010;2023-09-30T05:52:41;4.43;;;2.30;;
16998;SDS011;10211;49.476;11.010;2023-09-30T05:55:08;2.77;;;2.33;;
16998;SDS011;10211;49.476;11.010;2023-09-30T05:57:37;4.23;;;2.30;;
16998;SDS011;10211;49.476;11.010;2023-09-30T06:00:04;5.40;;;2.30;;
16998;SDS011;10211;49.476;11.010;2023-09-30T06:02:53;3.93;;;2.43;;
16998;SDS011;10211;49.476;11.010;2023-09-30T06:05:20;3.10;;;2.03;;
16998;SDS011;10211;49.476;11.010;2023-09-30T06:07:48;2.63;;;1.80;;
16998;SDS011;10211;49.476;11.010;2023-09-30T06:10:15;3.53;;;2.47;;
16998;SDS011;10211;49.476;11.010;2023-09-30T06:15:20;6.33;;;2.23;;
16998;SDS011;10211;49.476;11.010;2023-09-30T06:17:50;4.87;;;2.47;;
16998;SDS011;10211;49.476;11.010;2023-09-30T06:20:18;3.83;;;2.30;;
16998;SDS011;10211;49.476;11.010;2023-09-30T06:22:47;6.07;;;2.70;;
16998;SDS011;10211;49.476;11.010;2023-09-30T06:25:15;5.37;;;2.30;;
16998;SDS011;10211;49.476;11.010;2023-09-30T06:27:43;3.90;;;2.63;;
16998;SDS011;10211;49.476;11.010;2023-09-30T06:30:10;3.50;;;2.20;;
16998;SDS011;10211;49.476;11.010;2023-09-30T06:35:15;3.83;;;2.67;;
16998;SDS011;10211;49.476;11.010;2023-09-30T06:37:59;2.77;;;2.47;;
16998;SDS011;10211;49.476;11.010;2023-09-30T06:40:34;2.23;;;1.90;;
16998;SDS011;10211;49.476;11.010;2023-09-30T06:48:28;4.57;;;1.60;;
16998;SDS011;10211;49.476;11.010;2023-09-30T06:50:56;6.50;;;2.17;;
16998;SDS011;10211;49.476;11.010;2023-09-30T06:53:37;6.40;;;2.10;;
16998;SDS011;10211;49.476;11.010;2023-09-30T06:56:06;3.47;;;2.30;;
16998;SDS011;10211;49.476;11.010;2023-09-30T06:58:37;2.47;;;1.73;;
16998;SDS011;10211;49.476;11.010;2023-09-30T07:01:18;2.97;;;1.80;;
16998;SDS011;10211;49.476;11.010;2023-09-30T07:08:57;2.87;;;1.77;;
16998;SDS011;10211;49.476;11.010;2023-09-30T07:11:27;1.97;;;1.67;;
16998;SDS011;10211;49.476;11.010;2023-09-30T07:13:57;4.10;;;2.03;;
16998;SDS011;10211;49.476;11.010;2023-09-30T07:16:26;5.67;;;2.20;;
16998;SDS011;10211;49.476;11.010;2023-09-30T07:18:53;4.90;;;2.20;;
16998;SDS011;10211;49.476;11.010;2023-09-30T07:21:20;3.37;;;1.80;;
16998;SDS011;10211;49.476;11.010;2023-09-30T07:23:51;8.47;;;2.13;;
16998;SDS011;10211;49.476;11.010;2023-09-30T07:26:33;2.90;;;2.00;;
16998;SDS011;10211;49.476;11.010;2023-09-30T07:29:00;2.43;;;1.57;;
16998;SDS011;10211;49.476;11.010;2023-09-30T07:31:36;9.80;;;2.20;;
16998;SDS011;10211;49.476;11.010;2023-09-30T07:34:03;5.53;;;1.93;;
16998;SDS011;10211;49.476;11.010;2023-09-30T07:36:30;2.27;;;1.73;;
16998;SDS011;10211;49.476;11.010;2023-09-30T07:38:58;3.70;;;2.10;;
16998;SDS011;10211;49.476;11.010;2023-09-30T07:41:26;2.73;;;2.10;;
16998;SDS011;10211;49.476;11.010;2023-09-30T07:43:54;3.63;;;1.80;;
16998;SDS011;10211;49.476;11.010;2023-09-30T07:46:22;3.70;;;1.90;;
16998;SDS011;10211;49.476;11.010;2023-09-30T07:48:48;5.90;;;2.17;;
16998;SDS011;10211;49.476;11.010;2023-09-30T07:51:24;5.13;;;1.60;;
16998;SDS011;10211;49.476;11.010;2023-09-30T07:53:51;6.20;;;2.10;;
16998;SDS011;10211;49.476;11.010;2023-09-30T07:56:18;3.60;;;1.77;;
16998;SDS011;10211;49.476;11.010;2023-09-30T07:58:46;3.23;;;2.17;;
16998;SDS011;10211;49.476;11.010;2023-09-30T08:01:15;3.63;;;1.83;;
16998;SDS011;10211;49.476;11.010;2023-09-30T08:03:43;5.10;;;1.90;;
16998;SDS011;10211;49.476;11.010;2023-09-30T08:06:10;5.40;;;2.00;;
16998;SDS011;10211;49.476;11.010;2023-09-30T08:08:37;3.70;;;1.90;;
16998;SDS011;10211;49.476;11.010;2023-09-30T08:11:04;5.63;;;2.43;;
16998;SDS011;10211;49.476;11.010;2023-09-30T08:13:32;3.37;;;1.77;;
16998;SDS011;10211;49.476;11.010;2023-09-30T08:15:59;3.30;;;2.20;;
16998;SDS011;10211;49.476;11.010;2023-09-30T08:18:27;3.70;;;2.17;;
16998;SDS011;10211;49.476;11.010;2023-09-30T08:20:54;1.67;;;1.50;;
16998;SDS011;10211;49.476;11.010;2023-09-30T08:23:21;4.63;;;2.30;;
16998;SDS011;10211;49.476;11.010;2023-09-30T08:25:48;4.53;;;1.70;;
16998;SDS011;10211;49.476;11.010;2023-09-30T08:28:15;6.23;;;1.73;;
16998;SDS011;10211;49.476;11.010;2023-09-30T08:30:42;4.60;;;1.93;;
16998;SDS011;10211;49.476;11.010;2023-09-30T08:33:09;2.73;;;1.77;;
16998;SDS011;10211;49.476;11.010;2023-09-30T08:35:37;2.73;;;1.90;;
16998;SDS011;10211;49.476;11.010;2023-09-30T08:38:04;3.30;;;1.57;;
16998;SDS011;10211;49.476;11.010;2023-09-30T08:40:31;6.93;;;2.20;;
16998;SDS011;10211;49.476;11.010;2023-09-30T08:42:58;3.33;;;1.60;;
16998;SDS011;10211;49.476;11.010;2023-09-30T08:45:27;5.07;;;2.17;;
16998;SDS011;10211;49.476;11.010;2023-09-30T08:47:55;4.47;;;1.93;;
16998;SDS011;10211;49.476;11.010;2023-09-30T08:50:22;5.13;;;2.50;;
16998;SDS011;10211;49.476;11.010;2023-09-30T08:52:50;4.40;;;1.97;;
16998;SDS011;10211;49.476;11.010;2023-09-30T08:55:19;2.97;;;2.03;;
16998;SDS011;10211;49.476;11.010;2023-09-30T08:57:46;3.40;;;1.70;;
16998;SDS011;10211;49.476;11.010;2023-09-30T09:00:14;2.67;;;1.60;;
16998;SDS011;10211;49.476;11.010;2023-09-30T09:02:42;3.03;;;1.80;;
16998;SDS011;10211;49.476;11.010;2023-09-30T09:07:39;4.20;;;2.23;;
16998;SDS011;10211;49.476;11.010;2023-09-30T09:10:09;2.70;;;1.70;;
16998;SDS011;10211;49.476;11.010;2023-09-30T09:12:38;3.07;;;2.13;;
16998;SDS011;10211;49.476;11.010;2023-09-30T09:15:06;5.40;;;2.47;;
16998;SDS011;10211;49.476;11.010;2023-09-30T09:17:44;6.33;;;2.47;;
16998;SDS011;10211;49.476;11.010;2023-09-30T09:20:25;6.00;;;2.27;;
16998;SDS011;10211;49.476;11.010;2023-09-30T09:22:53;2.27;;;2.07;;
16998;SDS011;10211;49.476;11.010;2023-09-30T09:25:28;3.50;;;2.57;;
16998;SDS011;10211;49.476;11.010;2023-09-30T09:27:55;4.30;;;2.93;;
16998;SDS011;10211;49.476;11.010;2023-09-30T09:30:24;3.33;;;2.10;;
16998;SDS011;10211;49.476;11.010;2023-09-30T09:32:59;5.13;;;3.03;;
16998;SDS011;10211;49.476;11.010;2023-09-30T09:35:27;5.53;;;2.70;;
16998;SDS011;10211;49.476;11.010;2023-09-30T09:37:59;2.80;;;2.47;;
16998;SDS011;10211;49.476;11.010;2023-09-30T09:40:29;4.77;;;2.50;;
16998;SDS011;10211;49.476;11.010;2023-09-30T09:42:59;5.20;;;2.47;;
16998;SDS011;10211;49.476;11.010;2023-09-30T09:50:56;3.47;;;2.10;;
16998;SDS011;10211;49.476;11.010;2023-09-30T09:53:26;4.03;;;1.90;;
16998;SDS011;10211;49.476;11.010;2023-09-30T09:56:01;3.87;;;1.77;;
16998;SDS011;10211;49.476;11.010;2023-09-30T09:58:31;4.23;;;1.83;;
16998;SDS011;10211;49.476;11.010;2023-09-30T10:01:01;2.90;;;1.63;;
16998;SDS011;10211;49.476;11.010;2023-09-30T10:03:28;3.97;;;1.50;;
16998;SDS011;10211;49.476;11.010;2023-09-30T10:05:55;5.13;;;1.90;;
16998;SDS011;10211;49.476;11.010;2023-09-30T10:08:27;5.77;;;1.93;;
16998;SDS011;10211;49.476;11.010;2023-09-30T10:10:58;2.90;;;1.57;;
16998;SDS011;10211;49.476;11.010;2023-09-30T10:19:13;5.68;;;1.83;;
16998;SDS011;10211;49.476;11.010;2023-09-30T10:24:42;5.27;;;1.93;;
16998;SDS011;10211;49.476;11.010;2023-09-30T10:30:05;4.90;;;1.80;;
16998;SDS011;10211;49.476;11.010;2023-09-30T10:35:44;6.70;;;2.27;;
16998;SDS011;10211;49.476;11.010;2023-09-30T10:41:07;2.30;;;1.47;;
16998;SDS011;10211;49.476;11.010;2023-09-30T10:43:37;2.33;;;1.50;;
16998;SDS011;10211;49.476;11.010;2023-09-30T10:49:10;5.57;;;1.93;;
16998;SDS011;10211;49.476;11.010;2023-09-30T10:51:42;4.73;;;1.90;;
16998;SDS011;10211;49.476;11.010;2023-09-30T10:54:09;4.13;;;2.00;;
16998;SDS011;10211;49.476;11.010;2023-09-30T10:56:39;5.57;;;1.77;;
16998;SDS011;10211;49.476;11.010;2023-09-30T10:59:07;4.68;;;2.25;;
16998;SDS011;10211;49.476;11.010;2023-09-30T11:01:34;3.35;;;1.58;;
16998;SDS011;10211;49.476;11.010;2023-09-30T11:04:02;3.70;;;1.60;;
16998;SDS011;10211;49.476;11.010;2023-09-30T11:06:31;2.42;;;1.23;;
16998;SDS011;10211;49.476;11.010;2023-09-30T11:08:59;5.13;;;1.73;;
16998;SDS011;10211;49.476;11.010;2023-09-30T11:11:32;3.10;;;1.95;;
16998;SDS011;10211;49.476;11.010;2023-09-30T11:14:02;3.38;;;1.67;;
16998;SDS011;10211;49.476;11.010;2023-09-30T11:16:41;4.20;;;2.15;;
16998;SDS011;10211;49.476;11.010;2023-09-30T11:19:08;6.05;;;2.08;;
16998;SDS011;10211;49.476;11.010;2023-09-30T11:21:35;2.70;;;1.77;;
16998;SDS011;10211;49.476;11.010;2023-09-30T11:24:02;4.50;;;2.13;;
16998;SDS011;10211;49.476;11.010;2023-09-30T11:26:29;3.05;;;1.60;;
16998;SDS011;10211;49.476;11.010;2023-09-30T11:29:04;5.65;;;2.10;;
16998;SDS011;10211;49.476;11.010;2023-09-30T11:31:31;4.13;;;1.92;;
16998;SDS011;10211;49.476;11.010;2023-09-30T11:34:00;2.95;;;1.85;;
16998;SDS011;10211;49.476;11.010;2023-09-30T11:36:29;3.30;;;1.75;;
16998;SDS011;10211;49.476;11.010;2023-09-30T11:38:56;3.63;;;1.80;;
16998;SDS011;10211;49.476;11.010;2023-09-30T11:41:37;2.58;;;1.90;;
16998;SDS011;10211;49.476;11.010;2023-09-30T11:44:07;3.05;;;2.35;;
16998;SDS011;10211;49.476;11.010;2023-09-30T11:46:48;3.78;;;2.08;;
16998;SDS011;10211;49.476;11.010;2023-09-30T11:49:28;6.53;;;2.45;;
16998;SDS011;10211;49.476;11.010;2023-09-30T11:51:57;5.32;;;2.38;;
16998;SDS011;10211;49.476;11.010;2023-09-30T11:54:28;5.68;;;2.58;;
16998;SDS011;10211;49.476;11.010;2023-09-30T11:56:56;2.85;;;2.08;;
16998;SDS011;10211;49.476;11.010;2023-09-30T11:59:24;2.90;;;1.98;;
16998;SDS011;10211;49.476;11.010;2023-09-30T12:01:50;4.68;;;2.05;;
16998;SDS011;10211;49.476;11.010;2023-09-30T12:04:18;3.55;;;1.38;;
16998;SDS011;10211;49.476;11.010;2023-09-30T12:06:46;2.92;;;1.80;;
16998;SDS011;10211;49.476;11.010;2023-09-30T12:09:14;3.35;;;1.90;;
16998;SDS011;10211;49.476;11.010;2023-09-30T12:11:42;3.10;;;2.13;;
16998;SDS011;10211;49.476;11.010;2023-09-30T12:14:10;4.03;;;1.77;;
16998;SDS011;10211;49.476;11.010;2023-09-30T12:16:38;4.03;;;2.38;;
16998;SDS011;10211;49.476;11.010;2023-09-30T12:19:04;5.03;;;2.30;;
16998;SDS011;10211;49.476;11.010;2023-09-30T12:21:31;3.08;;;1.67;;
16998;SDS011;10211;49.476;11.010;2023-09-30T12:24:00;5.18;;;2.05;;
16998;SDS011;10211;49.476;11.010;2023-09-30T12:26:30;5.15;;;2.42;;
16998;SDS011;10211;49.476;11.010;2023-09-30T12:28:56;4.43;;;2.13;;
16998;SDS011;10211;49.476;11.010;2023-09-30T12:31:23;3.47;;;1.95;;
16998;SDS011;10211;49.476;11.010;2023-09-30T12:33:50;4.63;;;1.85;;
16998;SDS011;10211;49.476;11.010;2023-09-30T12:36:18;2.53;;;1.88;;
16998;SDS011;10211;49.476;11.010;2023-09-30T12:38:45;3.47;;;2.00;;
16998;SDS011;10211;49.476;11.010;2023-09-30T12:41:14;2.97;;;1.70;;
16998;SDS011;10211;49.476;11.010;2023-09-30T12:43:41;3.13;;;2.03;;
16998;SDS011;10211;49.476;11.010;2023-09-30T12:46:08;2.90;;;1.63;;
16998;SDS011;10211;49.476;11.010;2023-09-30T12:48:34;4.07;;;2.20;;
16998;SDS011;10211;49.476;11.010;2023-09-30T12:51:03;4.82;;;2.30;;
16998;SDS011;10211;49.476;11.010;2023-09-30T12:53:31;4.30;;;2.10;;
16998;SDS011;10211;49.476;11.010;2023-09-30T12:55:58;5.30;;;2.55;;
16998;SDS011;10211;49.476;11.010;2023-09-30T12:58:27;5.03;;;2.08;;
16998;SDS011;10211;49.476;11.010;2023-09-30T13:00:54;8.45;;;2.75;;
16998;SDS011;10211;49.476;11.010;2023-09-30T13:03:21;5.95;;;2.70;;
16998;SDS011;10211;49.476;11.010;2023-09-30T13:05:48;4.70;;;2.30;;
16998;SDS011;10211;49.476;11.010;2023-09-30T13:08:15;3.75;;;2.40;;
16998;SDS011;10211;49.476;11.010;2023-09-30T13:10:42;4.13;;;2.22;;
16998;SDS011;10211;49.476;11.010;2023-09-30T13:13:10;4.93;;;2.58;;
16998;SDS011;10211;49.476;11.010;2023-09-30T13:15:38;6.13;;;2.78;;
16998;SDS011;10211;49.476;11.010;2023-09-30T13:18:05;4.07;;;2.45;;
16998;SDS011;10211;49.476;11.010;2023-09-30T13:20:32;3.63;;;2.13;;
16998;SDS011;10211;49.476;11.010;2023-09-30T13:22:59;5.25;;;2.45;;
16998;SDS011;10211;49.476;11.010;2023-09-30T13:25:28;4.47;;;2.33;;
16998;SDS011;10211;49.476;11.010;2023-09-30T13:27:54;5.60;;;2.47;;
16998;SDS011;10211;49.476;11.010;2023-09-30T13:30:21;3.75;;;2.38;;
16998;SDS011;10211;49.476;11.010;2023-09-30T13:32:49;6.82;;;2.40;;
16998;SDS011;10211;49.476;11.010;2023-09-30T13:35:16;5.20;;;2.50;;
16998;SDS011;10211;49.476;11.010;2023-09-30T13:37:43;4.32;;;2.88;;
16998;SDS011;10211;49.476;11.010;2023-09-30T13:40:11;4.75;;;2.67;;
16998;SDS011;10211;49.476;11.010;2023-09-30T13:42:38;7.32;;;3.42;;
16998;SDS011;10211;49.476;11.010;2023-09-30T13:45:05;6.03;;;2.63;;
16998;SDS011;10211;49.476;11.010;2023-09-30T13:47:33;8.13;;;2.63;;
16998;SDS011;10211;49.476;11.010;2023-09-30T13:50:02;7.00;;;2.55;;
16998;SDS011;10211;49.476;11.010;2023-09-30T13:52:31;4.32;;;2.55;;
16998;SDS011;10211;49.476;11.010;2023-09-30T13:54:58;4.57;;;2.40;;
16998;SDS011;10211;49.476;11.010;2023-09-30T13:57:25;6.68;;;3.42;;
16998;SDS011;10211;49.476;11.010;2023-09-30T13:59:52;5.53;;;2.55;;
16998;SDS011;10211;49.476;11.010;2023-09-30T14:02:19;6.77;;;3.43;;
16998;SDS011;10211;49.476;11.010;2023-09-30T14:04:46;7.93;;;3.13;;
16998;SDS011;10211;49.476;11.010;2023-09-30T14:07:14;7.55;;;3.08;;
16998;SDS011;10211;49.476;11.010;2023-09-30T14:09:43;5.90;;;3.33;;
16998;SDS011;10211;49.476;11.010;2023-09-30T14:12:10;5.17;;;3.10;;
16998;SDS011;10211;49.476;11.010;2023-09-30T14:14:37;5.47;;;2.90;;
16998;SDS011;10211;49.476;11.010;2023-09-30T14:17:03;8.47;;;3.30;;
16998;SDS011;10211;49.476;11.010;2023-09-30T14:19:32;6.93;;;3.00;;
16998;SDS011;10211;49.476;11.010;2023-09-30T14:21:59;5.27;;;3.20;;
16998;SDS011;10211;49.476;11.010;2023-09-30T14:24:28;7.77;;;2.83;;
16998;SDS011;10211;49.476;11.010;2023-09-30T14:26:54;5.53;;;3.20;;
16998;SDS011;10211;49.476;11.010;2023-09-30T14:29:27;6.50;;;2.70;;
16998;SDS011;10211;49.476;11.010;2023-09-30T14:31:54;5.07;;;2.70;;
16998;SDS011;10211;49.476;11.010;2023-09-30T14:34:21;5.13;;;2.77;;
16998;SDS011;10211;49.476;11.010;2023-09-30T14:36:50;5.40;;;2.57;;
16998;SDS011;10211;49.476;11.010;2023-09-30T14:39:16;4.90;;;2.67;;
16998;SDS011;10211;49.476;11.010;2023-09-30T14:41:47;7.27;;;3.47;;
16998;SDS011;10211;49.476;11.010;2023-09-30T14:44:14;5.67;;;3.30;;
16998;SDS011;10211;49.476;11.010;2023-09-30T14:46:42;5.77;;;3.27;;
16998;SDS011;10211;49.476;11.010;2023-09-30T14:49:09;7.10;;;3.20;;
16998;SDS011;10211;49.476;11.010;2023-09-30T14:51:36;6.33;;;2.60;;
16998;SDS011;10211;49.476;11.010;2023-09-30T14:54:03;8.37;;;3.17;;
16998;SDS011;10211;49.476;11.010;2023-09-30T14:56:31;9.87;;;4.00;;
16998;SDS011;10211;49.476;11.010;2023-09-30T14:58:59;6.60;;;3.57;;
16998;SDS011;10211;49.476;11.010;2023-09-30T15:01:27;6.10;;;2.93;;
16998;SDS011;10211;49.476;11.010;2023-09-30T15:03:54;6.80;;;3.23;;
16998;SDS011;10211;49.476;11.010;2023-09-30T15:06:21;6.77;;;2.87;;
16998;SDS011;10211;49.476;11.010;2023-09-30T15:08:49;6.17;;;3.20;;
16998;SDS011;10211;49.476;11.010;2023-09-30T15:11:22;7.87;;;3.87;;
16998;SDS011;10211;49.476;11.010;2023-09-30T15:13:56;6.03;;;3.30;;
16998;SDS011;10211;49.476;11.010;2023-09-30T15:16:24;7.40;;;3.63;;
16998;SDS011;10211;49.476;11.010;2023-09-30T15:18:51;7.37;;;4.33;;
16998;SDS011;10211;49.476;11.010;2023-09-30T15:21:18;7.07;;;3.80;;
16998;SDS011;10211;49.476;11.010;2023-09-30T15:23:45;8.87;;;3.87;;